Time;durP1;ratioP1;P1;durP2;ratioP2;P2;SDS_P1;SDS_P2;PMS_P1;PMS_P2;Temp;Humidity;BMP_temperature;BMP_pressure;BME280_temperature;BME280_humidity;BME280_pressure;Samples;Min_cycle;Max_cycle;Signal;HPM_P1;HPM_P2
2023/01/07 00:02:52;;;;;;;6.10;5.50;;;;;;;10.20;100.00;101452.22;10421536;28;20424;-67
2023/01/07 00:07:52;;;;;;;7.13;5.82;;;;;;;10.20;100.00;101449.53;10425136;28;20037;-66
2023/01/07 00:12:53;;;;;;;4.32;3.65;;;;;;;10.22;100.00;101436.66;10416106;28;20034;-67
2023/01/07 00:17:53;;;;;;;4.97;4.50;;;;;;;10.21;100.00;101443.09;10381894;28;20037;-66
2023/01/07 00:22:54;;;;;;;6.03;5.20;;;;;;;10.25;100.00;101440.88;10397427;28;20192;-66
2023/01/07 00:27:54;;;;;;;5.68;5.07;;;;;;;10.24;100.00;101452.72;10415198;28;20115;-66
2023/01/07 00:33:04;;;;;;;12.48;5.25;;;;;;;10.30;100.00;101445.75;10400835;28;20029;-66
2023/01/07 00:38:05;;;;;;;6.50;5.85;;;;;;;10.32;100.00;101438.31;10408846;28;20366;-65
2023/01/07 00:43:05;;;;;;;5.70;4.75;;;;;;;10.36;100.00;101429.63;10432795;28;20037;-66
2023/01/07 00:48:06;;;;;;;7.30;4.45;;;;;;;10.34;100.00;101423.56;10422790;28;20037;-66
2023/01/07 00:53:06;;;;;;;4.75;4.28;;;;;;;10.27;100.00;101410.94;10405769;28;20061;-66
2023/01/07 00:58:09;;;;;;;3.92;3.63;;;;;;;10.25;100.00;101411.94;10405594;28;20456;-65
2023/01/07 01:03:10;;;;;;;8.10;4.90;;;;;;;10.18;100.00;101404.75;10388666;28;20041;-66
2023/01/07 01:08:10;;;;;;;5.70;3.47;;;;;;;10.11;100.00;101399.19;10404596;28;20048;-66
2023/01/07 01:13:12;;;;;;;5.75;4.22;;;;;;;10.03;100.00;101383.03;10404222;28;20124;-66
2023/01/07 01:18:12;;;;;;;5.05;4.13;;;;;;;9.94;100.00;101384.97;10421723;28;20037;-66
2023/01/07 01:23:13;;;;;;;11.82;5.30;;;;;;;9.90;100.00;101372.84;10422240;28;20054;-66
2023/01/07 01:28:13;;;;;;;4.70;3.95;;;;;;;9.90;100.00;101382.81;10421608;28;20109;-66
2023/01/07 01:33:13;;;;;;;4.13;3.40;;;;;;;9.79;100.00;101365.13;10402928;28;20048;-65
2023/01/07 01:38:14;;;;;;;6.28;4.82;;;;;;;9.83;100.00;101369.19;10386383;28;20041;-65
2023/01/07 01:43:35;;;;;;;6.78;5.80;;;;;;;9.83;100.00;101335.84;10420635;28;20033;-65
2023/01/07 01:48:35;;;;;;;5.20;4.22;;;;;;;9.90;100.00;101351.19;10370510;28;20033;-66
2023/01/07 01:53:35;;;;;;;4.70;4.18;;;;;;;10.04;100.00;101367.66;10403334;28;20035;-65
2023/01/07 01:58:39;;;;;;;5.53;4.93;;;;;;;10.02;100.00;101357.84;10385893;28;20029;-65
2023/01/07 02:03:40;;;;;;;5.95;5.25;;;;;;;10.01;100.00;101360.72;10402653;28;20029;-66
2023/01/07 02:08:40;;;;;;;12.73;6.03;;;;;;;9.93;100.00;101347.28;10419482;28;20025;-65
2023/01/07 02:13:52;;;;;;;5.80;5.30;;;;;;;9.85;100.00;101345.47;10419174;28;20437;-66
2023/01/07 02:19:17;;;;;;;6.88;4.63;;;;;;;9.83;100.00;101336.72;10420618;28;20037;-65
2023/01/07 02:24:39;;;;;;;6.32;4.45;;;;;;;9.75;100.00;101336.78;10415375;28;20049;-66
2023/01/07 02:30:17;;;;;;;5.57;4.95;;;;;;;9.69;100.00;101330.22;10427987;28;20116;-66
2023/01/07 02:35:35;;;;;;;4.55;3.90;;;;;;;9.68;100.00;101330.41;10419696;28;20095;-66
2023/01/07 02:40:59;;;;;;;7.53;5.10;;;;;;;9.73;100.00;101328.84;10419495;28;20112;-65
2023/01/07 02:46:05;;;;;;;4.05;3.75;;;;;;;9.66;100.00;101317.06;10400557;28;20041;-65
2023/01/07 02:51:06;;;;;;;9.43;5.65;;;;;;;9.63;100.00;101327.41;10418948;28;20390;-66
2023/01/07 02:56:18;;;;;;;7.45;5.30;;;;;;;9.62;100.00;101321.16;10405782;28;20045;-66
2023/01/07 03:01:36;;;;;;;7.72;4.70;;;;;;;9.66;100.00;101316.22;10387112;28;20125;-65
2023/01/07 03:06:59;;;;;;;9.57;4.43;;;;;;;9.66;100.00;101308.94;10418655;28;20029;-65
2023/01/07 03:12:07;;;;;;;7.22;5.07;;;;;;;9.59;100.00;101308.00;10385204;28;20076;-66
2023/01/07 03:17:08;;;;;;;5.40;4.80;;;;;;;9.59;100.00;101313.41;10383643;28;20488;-65
2023/01/07 03:22:08;;;;;;;6.57;3.92;;;;;;;9.55;100.00;101298.56;10383307;28;20046;-65
2023/01/07 03:27:09;;;;;;;10.63;4.47;;;;;;;9.63;100.00;101295.78;10366606;28;20096;-66
2023/01/07 03:32:15;;;;;;;5.65;4.57;;;;;;;9.56;100.00;101302.94;10398923;28;20063;-66
2023/01/07 03:37:18;;;;;;;7.45;4.57;;;;;;;9.62;100.00;101294.13;10401123;28;20030;-65
2023/01/07 03:42:41;;;;;;;7.20;4.75;;;;;;;9.66;100.00;101287.31;10382793;28;20045;-66
2023/01/07 03:47:46;;;;;;;7.65;4.32;;;;;;;9.61;100.00;101275.38;10373100;28;20025;-65
2023/01/07 03:52:49;;;;;;;8.13;6.03;;;;;;;9.68;100.00;101281.75;10397853;28;20038;-65
2023/01/07 03:57:50;;;;;;;5.25;3.90;;;;;;;9.76;100.00;101269.00;10399350;28;20361;-65
2023/01/07 04:02:50;;;;;;;6.00;5.00;;;;;;;9.84;100.00;101259.94;10415811;28;20034;-65
2023/01/07 04:07:51;;;;;;;5.75;5.13;;;;;;;9.90;100.00;101270.03;10415538;28;20084;-66
2023/01/07 04:12:51;;;;;;;9.25;6.35;;;;;;;10.02;100.00;101265.84;10415517;28;20366;-65
2023/01/07 04:17:52;;;;;;;12.50;5.72;;;;;;;10.04;100.00;101252.13;10415297;28;20040;-65
2023/01/07 04:22:52;;;;;;;7.13;5.40;;;;;;;10.06;100.00;101246.56;10414863;28;20406;-65
2023/01/07 04:27:52;;;;;;;8.23;5.43;;;;;;;10.07;100.00;101246.34;10415213;28;20033;-65
2023/01/07 04:32:53;;;;;;;7.95;6.47;;;;;;;10.08;100.00;101236.38;10414712;28;20026;-66
2023/01/07 04:37:53;;;;;;;10.48;5.82;;;;;;;10.07;100.00;101227.41;10415764;28;20033;-65
2023/01/07 04:42:54;;;;;;;6.57;5.97;;;;;;;10.01;100.00;101229.00;10420737;28;20453;-66
2023/01/07 04:47:55;;;;;;;9.75;7.25;;;;;;;9.95;100.00;101224.31;10425934;28;20041;-66
2023/01/07 04:52:55;;;;;;;12.75;6.78;;;;;;;9.93;100.00;101207.44;10398607;28;20057;-66
2023/01/07 04:57:56;;;;;;;8.57;6.93;;;;;;;9.90;100.00;101190.75;10414621;28;20033;-65
2023/01/07 05:02:56;;;;;;;9.18;7.13;;;;;;;9.80;100.00;101199.16;10415052;28;20041;-65
2023/01/07 05:07:56;;;;;;;9.73;8.70;;;;;;;9.69;100.00;101192.31;10414949;28;20033;-65
2023/01/07 05:12:57;;;;;;;13.25;8.98;;;;;;;9.67;100.00;101190.84;10381603;28;20041;-65
2023/01/07 05:17:57;;;;;;;14.70;9.10;;;;;;;9.60;100.00;101184.47;10382630;28;20025;-66
2023/01/07 05:22:58;;;;;;;10.13;8.43;;;;;;;9.56;100.00;101184.00;10422231;28;20143;-66
2023/01/07 05:27:58;;;;;;;14.68;9.70;;;;;;;9.60;100.00;101182.59;10422296;28;20061;-66
2023/01/07 05:32:59;;;;;;;9.38;7.45;;;;;;;9.45;100.00;101166.38;10421860;28;20538;-66
2023/01/07 05:37:59;;;;;;;9.32;8.05;;;;;;;9.42;100.00;101165.91;10421195;28;20037;-65
2023/01/07 05:42:59;;;;;;;8.48;7.68;;;;;;;9.36;100.00;101158.50;10406687;28;20464;-66
2023/01/07 05:48:00;;;;;;;6.90;6.18;;;;;;;9.35;100.00;101156.81;10425815;28;20029;-66
2023/01/07 05:53:00;;;;;;;7.53;6.60;;;;;;;9.35;100.00;101154.13;10421010;28;20033;-66
2023/01/07 05:58:01;;;;;;;9.23;6.28;;;;;;;9.27;100.00;101155.03;10419725;28;20034;-67
2023/01/07 06:03:02;;;;;;;15.88;6.32;;;;;;;9.25;100.00;101138.16;10402352;28;20033;-66
2023/01/07 06:08:02;;;;;;;9.40;5.05;;;;;;;9.21;100.00;101128.75;10419882;28;20442;-66
2023/01/07 06:13:03;;;;;;;10.25;5.63;;;;;;;9.23;100.00;101137.53;10419009;28;20120;-66
2023/01/07 06:18:03;;;;;;;7.18;5.55;;;;;;;9.18;100.00;101126.41;10420183;28;20045;-66
2023/01/07 06:23:03;;;;;;;6.05;5.20;;;;;;;9.15;100.00;101124.06;10420953;28;20501;-66
2023/01/07 06:28:05;;;;;;;8.68;6.47;;;;;;;9.14;100.00;101117.00;10420728;28;20151;-66
2023/01/07 06:33:06;;;;;;;6.00;5.40;;;;;;;9.17;100.00;101103.13;10400823;28;20119;-66
2023/01/07 06:38:06;;;;;;;10.23;5.10;;;;;;;9.17;100.00;101101.25;10419551;28;20033;-68
2023/01/07 06:43:07;;;;;;;11.23;5.45;;;;;;;9.08;100.00;101100.47;10428309;28;20050;-67
2023/01/07 06:48:07;;;;;;;5.82;4.25;;;;;;;9.12;100.00;101092.84;10419945;28;20048;-67
2023/01/07 06:53:08;;;;;;;4.53;4.10;;;;;;;9.05;100.00;101100.00;10423218;28;20034;-67
2023/01/07 06:58:08;;;;;;;7.93;3.05;;;;;;;9.25;100.00;101082.28;10425578;28;20375;-66
2023/01/07 07:03:08;;;;;;;5.95;4.35;;;;;;;9.41;100.00;101088.50;10425478;28;20041;-65
2023/01/07 07:08:09;;;;;;;5.90;3.55;;;;;;;9.46;100.00;101073.44;10404268;28;20438;-67
2023/01/07 07:13:10;;;;;;;3.03;2.70;;;;;;;9.51;100.00;101065.59;10422992;28;20029;-66
2023/01/07 07:18:11;;;;;;;5.03;3.22;;;;;;;9.52;100.00;101061.88;10422206;28;20033;-66
2023/01/07 07:23:11;;;;;;;2.30;2.10;;;;;;;9.47;100.00;101039.94;10422031;28;20045;-65
2023/01/07 07:28:12;;;;;;;3.08;2.35;;;;;;;9.59;100.00;101058.41;10406361;28;20100;-65
2023/01/07 07:33:13;;;;;;;1.75;1.65;;;;;;;9.60;100.00;101042.00;10425203;28;20439;-66
2023/01/07 07:38:16;;;;;;;4.82;1.83;;;;;;;9.61;100.00;101046.41;10412423;28;20033;-66
2023/01/07 07:43:16;;;;;;;2.17;1.98;;;;;;;9.65;100.00;101044.16;10423460;28;20434;-67
2023/01/07 07:48:17;;;;;;;1.95;1.85;;;;;;;9.75;100.00;101033.88;10420199;28;20040;-66
2023/01/07 07:53:18;;;;;;;2.15;1.90;;;;;;;9.66;100.00;101016.06;10400780;28;20053;-66
2023/01/07 07:58:18;;;;;;;5.70;2.40;;;;;;;9.72;100.00;101018.03;10422025;28;20037;-66
2023/01/07 08:03:19;;;;;;;2.35;2.15;;;;;;;9.80;100.00;101014.41;10423270;28;20037;-66
2023/01/07 08:08:19;;;;;;;4.20;2.42;;;;;;;9.82;100.00;101015.03;10428653;28;20117;-65
2023/01/07 08:13:19;;;;;;;1.58;1.30;;;;;;;9.86;100.00;101019.03;10410285;28;20350;-66
2023/01/07 08:18:20;;;;;;;2.60;2.40;;;;;;;9.91;100.00;101001.19;10406684;28;20038;-65
2023/01/07 08:23:20;;;;;;;3.22;1.98;;;;;;;9.97;100.00;101013.97;10406597;28;20088;-66
2023/01/07 08:28:21;;;;;;;1.98;1.77;;;;;;;10.00;100.00;101005.47;10425148;28;20053;-66
2023/01/07 08:33:21;;;;;;;7.93;1.90;;;;;;;10.06;100.00;101009.28;10405152;28;20038;-66
2023/01/07 08:38:22;;;;;;;1.90;1.80;;;;;;;10.10;100.00;101007.03;10422465;28;20068;-65
2023/01/07 08:43:23;;;;;;;5.00;1.95;;;;;;;10.23;100.00;101016.13;10421363;28;20493;-65
2023/01/07 08:48:23;;;;;;;1.50;1.08;;;;;;;10.20;100.00;101010.25;10404403;28;20042;-65
2023/01/07 08:53:24;;;;;;;2.90;2.10;;;;;;;10.24;100.00;101001.56;10423173;28;20029;-65
2023/01/07 08:58:24;;;;;;;1.98;1.60;;;;;;;10.25;100.00;100997.81;10411212;28;20124;-65
2023/01/07 09:03:25;;;;;;;6.38;2.05;;;;;;;10.30;100.00;100988.31;10426876;28;20034;-66
2023/01/07 09:08:25;;;;;;;2.60;1.45;;;;;;;10.33;100.00;100969.81;10427539;28;20042;-66
2023/01/07 09:13:25;;;;;;;1.88;1.33;;;;;;;10.31;100.00;100998.97;10429188;28;20331;-66
2023/01/07 09:18:26;;;;;;;2.05;1.95;;;;;;;10.32;100.00;100959.19;10411034;28;20041;-66
2023/01/07 09:23:26;;;;;;;1.30;1.10;;;;;;;10.44;100.00;100947.63;10409890;28;20050;-66
2023/01/07 09:28:27;;;;;;;0.93;0.93;;;;;;;10.47;100.00;100925.59;10426440;28;20088;-66
2023/01/07 09:33:27;;;;;;;1.10;1.10;;;;;;;10.50;100.00;100905.41;10422114;28;20034;-65
2023/01/07 09:38:28;;;;;;;1.45;1.20;;;;;;;10.41;100.00;100930.97;10405683;28;20132;-67
2023/01/07 09:43:38;;;;;;;2.30;1.52;;;;;;;10.44;100.00;100915.16;10422714;28;20034;-67
2023/01/07 09:48:44;;;;;;;1.20;1.15;;;;;;;10.52;100.00;100916.88;10386824;28;20064;-66
2023/01/07 09:53:47;;;;;;;1.08;1.08;;;;;;;10.66;100.00;100904.28;10404097;28;20055;-66
2023/01/07 09:58:47;;;;;;;1.60;1.17;;;;;;;10.75;100.00;100891.41;10404841;28;20113;-66
2023/01/07 10:04:10;;;;;;;2.70;1.33;;;;;;;10.82;100.00;100881.47;10420182;28;20033;-66
2023/01/07 10:09:14;;;;;;;1.00;1.00;;;;;;;11.03;100.00;100877.81;10419434;28;20068;-66
2023/01/07 10:14:45;;;;;;;2.15;1.65;;;;;;;11.48;100.00;100875.47;10402731;28;20029;-67
2023/01/07 10:19:59;;;;;;;1.63;1.33;;;;;;;11.57;100.00;100868.84;10421138;28;20030;-67
2023/01/07 10:25:09;;;;;;;1.42;1.33;;;;;;;11.42;100.00;100850.00;10421221;28;20049;-65
2023/01/07 10:30:18;;;;;;;2.42;1.77;;;;;;;11.84;100.00;100819.03;10403680;28;20042;-65
2023/01/07 10:35:20;;;;;;;2.17;2.05;;;;;;;12.31;100.00;100822.56;10420645;28;20029;-66
2023/01/07 10:40:32;;;;;;;2.08;1.90;;;;;;;12.42;100.00;100812.94;10385800;28;20458;-66
2023/01/07 10:45:45;;;;;;;1.73;1.63;;;;;;;12.51;100.00;100789.13;10401888;28;20048;-67
2023/01/07 10:51:04;;;;;;;1.25;1.25;;;;;;;12.79;100.00;100786.94;10418110;28;20380;-65
2023/01/07 10:56:15;;;;;;;0.73;0.73;;;;;;;12.30;100.00;100763.03;10418035;28;20022;-65
2023/01/07 11:01:28;;;;;;;0.95;0.95;;;;;;;12.28;100.00;100746.97;10368678;28;20543;-65
2023/01/07 11:07:06;;;;;;;1.10;1.10;;;;;;;11.64;100.00;100742.19;10385427;28;20026;-64
2023/01/07 11:12:31;;;;;;;0.85;0.85;;;;;;;11.41;100.00;100750.75;10417354;28;20084;-66
2023/01/07 11:17:36;;;;;;;1.05;1.05;;;;;;;11.61;100.00;100742.59;10417028;28;20036;-66
2023/01/07 11:22:37;;;;;;;1.05;1.05;;;;;;;11.39;100.00;100710.28;10382491;28;20481;-66
2023/01/07 11:27:38;;;;;;;1.02;1.00;;;;;;;11.30;100.00;100706.09;10416784;28;20037;-65
2023/01/07 11:32:39;;;;;;;1.48;1.38;;;;;;;11.38;100.00;100713.19;10382509;28;20109;-66
2023/01/07 11:37:44;;;;;;;2.30;1.67;;;;;;;11.27;100.00;100689.44;10416667;28;20480;-65
2023/01/07 11:42:58;;;;;;;1.67;1.55;;;;;;;11.29;100.00;100693.56;10401175;28;20121;-65
2023/01/07 11:48:05;;;;;;;1.83;1.65;;;;;;;11.16;100.00;100683.56;10403831;28;20041;-66
2023/01/07 11:53:15;;;;;;;7.97;1.92;;;;;;;11.21;100.00;100693.78;10423449;28;20039;-66
2023/01/07 11:58:18;;;;;;;1.23;1.13;;;;;;;11.20;100.00;100666.88;10404331;28;20105;-65
2023/01/07 12:03:19;;;;;;;5.32;1.75;;;;;;;11.01;100.00;100636.00;10416364;28;20033;-65
2023/01/07 12:08:20;;;;;;;2.30;2.00;;;;;;;10.95;100.00;100632.28;10415425;28;20578;-66
2023/01/07 12:13:24;;;;;;;1.02;1.00;;;;;;;11.00;100.00;100650.59;10397160;28;20034;-65
2023/01/07 12:18:36;;;;;;;1.58;1.48;;;;;;;10.91;100.00;100623.72;10381969;28;20033;-65
2023/01/07 12:23:59;;;;;;;1.40;1.35;;;;;;;10.85;100.00;100605.59;10416209;28;20053;-66
2023/01/07 12:29:34;;;;;;;3.60;1.70;;;;;;;10.83;100.00;100594.13;10406573;28;20033;-65
2023/01/07 12:35:33;;;;;;;2.25;1.70;;;;;;;11.15;100.00;100584.31;10431117;28;20476;-66
2023/01/07 12:41:01;;;;;;;1.60;1.50;;;;;;;11.48;100.00;100563.63;10414324;28;20097;-66
2023/01/07 12:46:03;;;;;;;4.28;1.85;;;;;;;11.61;100.00;100561.75;10410189;28;20181;-66
2023/01/07 12:51:28;;;;;;;1.98;1.88;;;;;;;11.55;100.00;100548.19;10416997;28;20029;-66
2023/01/07 12:56:31;;;;;;;1.65;1.55;;;;;;;11.38;100.00;100535.09;10422195;28;20367;-65
2023/01/07 13:01:42;;;;;;;3.03;1.95;;;;;;;11.41;100.00;100531.94;10388570;28;20029;-65
2023/01/07 13:07:24;;;;;;;1.92;1.75;;;;;;;11.32;100.00;100508.00;10405677;28;20030;-65
2023/01/07 13:12:43;;;;;;;3.38;2.15;;;;;;;11.16;100.00;100498.44;10421940;28;20041;-65
2023/01/07 13:17:43;;;;;;;1.67;1.58;;;;;;;11.04;100.00;100506.38;10406420;28;20068;-66
2023/01/07 13:22:52;;;;;;;1.75;1.60;;;;;;;10.93;100.00;100507.84;10405948;28;20081;-65
2023/01/07 13:28:46;;;;;;;5.55;1.50;;;;;;;10.92;100.00;100473.69;10388922;28;20405;-65
2023/01/07 13:33:49;;;;;;;2.85;2.17;;;;;;;11.00;100.00;100458.25;10334508;28;20409;-66
2023/01/07 13:39:18;;;;;;;1.30;1.30;;;;;;;11.02;100.00;100467.00;10403068;28;20137;-64
2023/01/07 13:45:06;;;;;;;2.08;1.75;;;;;;;11.03;100.00;100455.09;10405730;28;20037;-65
2023/01/07 13:50:20;;;;;;;1.45;1.35;;;;;;;11.01;100.00;100462.59;10403256;28;20397;-65
2023/01/07 13:55:27;;;;;;;3.03;1.95;;;;;;;11.00;100.00;100447.41;10387833;28;20043;-66
2023/01/07 14:00:46;;;;;;;1.65;1.55;;;;;;;11.03;100.00;100438.84;10420211;28;20037;-65
2023/01/07 14:05:47;;;;;;;1.55;1.45;;;;;;;11.07;100.00;100435.53;10403151;28;20077;-66
2023/01/07 14:10:51;;;;;;;1.50;1.40;;;;;;;11.10;100.00;100435.09;10428117;28;20091;-66
2023/01/07 14:16:03;;;;;;;1.90;1.73;;;;;;;11.13;100.00;100422.97;10408975;28;20029;-65
2023/01/07 14:21:09;;;;;;;6.32;1.45;;;;;;;11.07;100.00;100412.97;10420148;28;20029;-64
2023/01/07 14:26:15;;;;;;;1.73;1.50;;;;;;;11.03;100.00;100419.88;10401727;28;20354;-64
2023/01/07 14:31:22;;;;;;;1.73;1.65;;;;;;;11.03;100.00;100415.28;10419609;28;20044;-65
2023/01/07 14:36:24;;;;;;;1.48;1.38;;;;;;;10.95;100.00;100393.88;10420026;28;20112;-65
2023/01/07 14:41:24;;;;;;;1.83;1.73;;;;;;;10.80;100.00;100407.63;10400496;28;20552;-65
2023/01/07 14:46:36;;;;;;;3.38;1.42;;;;;;;10.68;100.00;100395.78;10401057;28;20121;-64
2023/01/07 14:52:11;;;;;;;1.52;1.38;;;;;;;10.63;100.00;100398.31;10417762;28;20039;-64
2023/01/07 14:57:29;;;;;;;4.05;1.95;;;;;;;10.55;100.00;100388.50;10417789;28;20469;-65
2023/01/07 15:02:51;;;;;;;1.40;1.30;;;;;;;10.42;100.00;100405.59;10419539;28;20033;-66
2023/01/07 15:15:59;;;;;;;1.85;1.50;;;;;;;10.33;100.00;100379.75;10418383;28;20025;-65
2023/01/07 15:18:46;;;;;;;4.18;1.98;;;;;;;10.16;100.00;100383.91;10388718;28;20112;-65
2023/01/07 15:24:08;;;;;;;1.55;1.40;;;;;;;9.82;100.00;100374.91;10382479;28;20136;-64
2023/01/07 15:29:18;;;;;;;1.63;1.52;;;;;;;9.73;100.00;100374.28;10416886;28;20029;-65
2023/01/07 15:34:19;;;;;;;1.70;1.60;;;;;;;9.74;100.00;100361.59;10416791;28;20033;-65
2023/01/07 15:39:22;;;;;;;1.60;1.50;;;;;;;9.71;100.00;100359.31;10398233;28;20031;-64
2023/01/07 15:44:24;;;;;;;1.80;1.70;;;;;;;9.61;100.00;100358.88;10416545;28;20036;-64
2023/01/07 15:49:25;;;;;;;3.08;1.75;;;;;;;9.34;100.00;100360.66;10415941;28;20052;-63
2023/01/07 15:54:36;;;;;;;2.33;2.13;;;;;;;9.21;100.00;100350.63;10415662;28;20124;-64
2023/01/07 15:59:40;;;;;;;2.08;1.88;;;;;;;9.23;100.00;100341.28;10399248;28;20040;-63
2023/01/07 16:04:42;;;;;;;1.85;1.55;;;;;;;9.22;100.00;100350.44;10414706;28;20051;-63
2023/01/07 16:09:43;;;;;;;2.13;1.92;;;;;;;9.29;100.00;100353.16;10416515;28;20036;-63
2023/01/07 16:14:43;;;;;;;2.20;2.00;;;;;;;9.30;100.00;100339.44;10398279;28;20049;-63
2023/01/07 16:19:44;;;;;;;1.88;1.65;;;;;;;9.21;100.00;100332.56;10415557;28;20037;-65
2023/01/07 16:24:46;;;;;;;2.35;2.15;;;;;;;9.28;100.00;100352.34;10381926;28;20136;-65
2023/01/07 16:29:49;;;;;;;2.08;1.98;;;;;;;9.15;100.00;100327.13;10383501;28;20029;-63
2023/01/07 16:34:57;;;;;;;3.38;2.35;;;;;;;9.08;100.00;100346.84;10385354;28;20500;-63
2023/01/07 16:39:58;;;;;;;2.97;2.72;;;;;;;9.01;100.00;100354.09;10402873;28;20025;-64
2023/01/07 16:44:58;;;;;;;8.65;3.40;;;;;;;8.85;100.00;100346.31;10396853;28;20047;-64
2023/01/07 16:50:19;;;;;;;4.13;3.25;;;;;;;8.77;100.00;100331.09;10415061;28;20037;-64
2023/01/07 16:55:51;;;;;;;2.95;2.50;;;;;;;8.71;100.00;100339.16;10415567;28;20084;-64
2023/01/07 17:00:52;;;;;;;8.88;3.50;;;;;;;8.61;100.00;100328.72;10396790;28;20038;-64
2023/01/07 17:06:01;;;;;;;6.22;3.53;;;;;;;8.51;100.00;100330.97;10396944;28;20388;-64
2023/01/07 17:11:06;;;;;;;10.70;2.55;;;;;;;8.47;100.00;100319.72;10382301;28;20040;-65
2023/01/07 17:16:26;;;;;;;2.90;2.70;;;;;;;8.41;100.00;100295.41;10386450;28;20033;-64
2023/01/07 17:21:40;;;;;;;3.80;3.50;;;;;;;8.49;100.00;100290.69;10421553;28;20050;-63
2023/01/07 17:26:41;;;;;;;6.35;3.33;;;;;;;8.44;100.00;100289.63;10403787;28;20037;-64
2023/01/07 17:31:42;;;;;;;8.60;3.88;;;;;;;8.46;100.00;100291.09;10421579;28;20030;-64
2023/01/07 17:36:42;;;;;;;6.82;3.97;;;;;;;8.38;100.00;100300.16;10387437;28;20120;-64
2023/01/07 17:47:02;;;;;;;4.13;3.60;;;;;;;8.45;100.00;100261.59;10421760;28;20049;-64
2023/01/07 17:52:02;;;;;;;4.60;3.55;;;;;;;8.55;100.00;100252.13;10427591;28;20460;-64
2023/01/07 17:57:02;;;;;;;3.55;3.25;;;;;;;8.60;100.00;100249.63;10425140;28;20029;-64
2023/01/07 18:02:04;;;;;;;5.20;2.78;;;;;;;8.55;100.00;100245.88;10423491;28;20095;-63
2023/01/07 18:07:06;;;;;;;6.32;3.38;;;;;;;8.58;100.00;100232.84;10403987;28;20544;-65
2023/01/07 18:12:30;;;;;;;6.03;2.75;;;;;;;8.52;100.00;100239.03;10402161;28;20029;-64
2023/01/07 18:17:30;;;;;;;6.80;2.53;;;;;;;8.50;100.00;100242.94;10404398;28;20033;-64
2023/01/07 18:22:30;;;;;;;6.53;3.13;;;;;;;8.65;100.00;100238.25;10401971;28;20057;-64
2023/01/07 18:27:31;;;;;;;3.33;3.03;;;;;;;8.66;100.00;100234.50;10403085;28;20105;-63
2023/01/07 18:32:31;;;;;;;4.47;3.33;;;;;;;8.67;100.00;100251.53;10418404;28;20033;-64
2023/01/07 18:37:32;;;;;;;5.35;3.03;;;;;;;8.81;100.00;100251.41;10401214;28;20033;-64
2023/01/07 18:42:32;;;;;;;5.97;3.40;;;;;;;8.92;100.00;100230.25;10418471;28;20129;-63
2023/01/07 18:47:33;;;;;;;6.57;3.95;;;;;;;8.95;100.00;100225.25;10403231;28;20045;-63
2023/01/07 18:52:33;;;;;;;3.55;2.58;;;;;;;9.03;100.00;100222.38;10421484;28;20061;-64
2023/01/07 18:57:34;;;;;;;3.78;3.42;;;;;;;9.09;100.00;100218.03;10420064;28;20033;-62
2023/01/07 19:02:34;;;;;;;5.85;4.57;;;;;;;9.20;100.00;100225.53;10419676;28;20128;-64
2023/01/07 19:07:34;;;;;;;6.28;4.28;;;;;;;9.29;100.00;100226.19;10418306;28;20088;-64
2023/01/07 19:12:35;;;;;;;8.57;3.53;;;;;;;9.38;100.00;100211.44;10416837;28;20128;-63
2023/01/07 19:17:35;;;;;;;3.58;3.28;;;;;;;9.43;100.00;100206.22;10417919;28;20124;-64
2023/01/07 19:22:36;;;;;;;3.58;3.25;;;;;;;9.46;100.00;100203.13;10400515;28;20061;-64
2023/01/07 19:27:36;;;;;;;3.20;2.72;;;;;;;9.58;100.00;100210.63;10416302;28;20486;-63
2023/01/07 19:32:37;;;;;;;5.13;4.35;;;;;;;9.67;100.00;100180.47;10416649;28;20068;-64
2023/01/07 19:37:37;;;;;;;4.15;2.83;;;;;;;9.70;100.00;100190.00;10416043;28;20042;-63
2023/01/07 19:42:37;;;;;;;5.15;4.25;;;;;;;9.50;100.00;100193.53;10416548;28;20033;-63
2023/01/07 19:47:38;;;;;;;8.02;3.67;;;;;;;9.16;100.00;100209.97;10416216;28;20095;-65
2023/01/07 19:52:38;;;;;;;7.43;3.47;;;;;;;9.07;100.00;100187.69;10416519;28;20124;-64
2023/01/07 19:57:39;;;;;;;3.75;3.45;;;;;;;9.03;100.00;100179.19;10416595;28;20045;-64
2023/01/07 20:02:39;;;;;;;7.70;4.55;;;;;;;9.08;100.00;100198.28;10382950;28;20038;-63
2023/01/07 20:07:39;;;;;;;5.13;4.60;;;;;;;9.20;100.00;100189.59;10416826;28;20413;-64
2023/01/07 20:12:40;;;;;;;3.80;3.45;;;;;;;9.25;100.00;100184.38;10415585;28;20041;-65
2023/01/07 20:17:40;;;;;;;16.13;5.07;;;;;;;9.25;100.00;100189.78;10397914;28;20037;-64
2023/01/07 20:22:43;;;;;;;4.85;4.22;;;;;;;9.20;100.00;100176.09;10381315;28;20053;-65
2023/01/07 20:27:43;;;;;;;4.63;4.22;;;;;;;9.22;100.00;100165.88;10416148;28;20034;-64
2023/01/07 20:32:45;;;;;;;4.88;4.18;;;;;;;9.19;100.00;100169.84;10416539;28;20108;-64
2023/01/07 20:37:45;;;;;;;6.97;3.85;;;;;;;9.15;100.00;100162.34;10415109;28;20364;-64
2023/01/07 20:42:45;;;;;;;6.30;3.95;;;;;;;9.10;100.00;100157.59;10398287;28;20037;-63
2023/01/07 20:47:46;;;;;;;5.10;4.50;;;;;;;9.11;100.00;100163.81;10381413;28;20037;-64
2023/01/07 20:52:46;;;;;;;5.00;4.53;;;;;;;9.10;100.00;100184.59;10422943;28;20118;-63
2023/01/07 20:57:46;;;;;;;6.18;4.32;;;;;;;9.07;100.00;100166.91;10423583;28;20065;-64
2023/01/07 21:02:47;;;;;;;5.95;4.55;;;;;;;9.05;100.00;100171.69;10422327;28;20034;-64
2023/01/07 21:07:47;;;;;;;5.32;3.90;;;;;;;9.03;100.00;100168.38;10422832;28;20040;-64
2023/01/07 21:12:48;;;;;;;4.53;4.13;;;;;;;9.05;100.00;100149.25;10406231;28;20529;-64
2023/01/07 21:17:51;;;;;;;6.53;5.10;;;;;;;9.08;100.00;100162.34;10424214;28;20397;-64
2023/01/07 21:22:51;;;;;;;8.45;5.03;;;;;;;9.20;100.00;100144.50;10407789;28;20057;-63
2023/01/07 21:27:52;;;;;;;5.35;4.82;;;;;;;9.31;100.00;100137.63;10421704;28;20033;-64
2023/01/07 21:32:54;;;;;;;7.22;4.80;;;;;;;9.34;100.00;100155.31;10422065;28;20132;-64
2023/01/07 21:37:54;;;;;;;7.22;5.20;;;;;;;9.44;100.00;100166.53;10404773;28;20116;-64
2023/01/07 21:42:55;;;;;;;4.47;4.13;;;;;;;9.63;100.00;100164.84;10404504;28;20484;-66
2023/01/07 21:47:56;;;;;;;3.80;3.40;;;;;;;9.64;100.00;100156.53;10421082;28;20029;-64
2023/01/07 21:52:57;;;;;;;10.18;4.03;;;;;;;9.59;100.00;100159.03;10403741;28;20573;-64
2023/01/07 21:57:57;;;;;;;6.85;4.40;;;;;;;9.54;100.00;100153.44;10421076;28;20037;-62
2023/01/07 22:02:58;;;;;;;3.13;2.83;;;;;;;9.52;100.00;100140.13;10420318;28;20037;-64
2023/01/07 22:07:58;;;;;;;4.55;3.97;;;;;;;9.57;100.00;100154.88;10403645;28;20045;-63
2023/01/07 22:12:58;;;;;;;6.75;3.83;;;;;;;9.62;100.00;100169.44;10419829;28;20139;-63
2023/01/07 22:17:59;;;;;;;6.93;4.95;;;;;;;9.51;100.00;100186.28;10420819;28;20041;-64
2023/01/07 22:22:59;;;;;;;2.58;2.17;;;;;;;9.05;100.00;100157.34;10385528;28;20058;-64
2023/01/07 22:28:01;;;;;;;2.15;1.50;;;;;;;8.64;100.00;100144.81;10419957;28;20036;-65
2023/01/07 22:33:01;;;;;;;4.70;1.30;;;;;;;8.51;100.00;100156.38;10385396;28;20452;-64
2023/01/07 22:38:03;;;;;;;2.58;1.95;;;;;;;8.52;100.00;100170.72;10419185;28;20125;-64
2023/01/07 22:43:05;;;;;;;4.90;2.35;;;;;;;8.57;100.00;100163.69;10400805;28;20030;-64
2023/01/07 22:48:06;;;;;;;4.60;2.95;;;;;;;8.63;100.00;100180.09;10401389;28;20043;-64
2023/01/07 22:53:08;;;;;;;7.97;2.83;;;;;;;8.57;100.00;100185.28;10419681;28;20029;-64
2023/01/07 22:58:08;;;;;;;2.72;1.83;;;;;;;8.54;100.00;100174.88;10368133;28;20068;-63
2023/01/07 23:03:08;;;;;;;6.38;1.67;;;;;;;8.42;100.00;100173.78;10401348;28;20034;-63
2023/01/07 23:08:09;;;;;;;6.85;1.95;;;;;;;8.48;100.00;100186.47;10417965;28;20119;-64
2023/01/07 23:13:09;;;;;;;2.75;2.15;;;;;;;8.42;100.00;100187.28;10398211;28;20040;-64
2023/01/07 23:18:10;;;;;;;12.63;2.25;;;;;;;8.34;100.00;100187.44;10419090;28;20038;-64
2023/01/07 23:23:11;;;;;;;9.43;2.40;;;;;;;8.26;100.00;100193.81;10418494;28;20049;-64
2023/01/07 23:28:11;;;;;;;12.73;2.75;;;;;;;8.31;100.00;100201.31;10417463;28;20385;-64